Time;durP1;ratioP1;P1;durP2;ratioP2;P2;SDS_P1;SDS_P2;PMS_P1;PMS_P2;Temp;Humidity;BMP_temperature;BMP_pressure;BME280_temperature;BME280_humidity;BME280_pressure;Samples;Min_cycle;Max_cycle;Signal;HPM_P1;HPM_P2
2023/12/02 00:00:01;;;;;;;42.33;25.40;;;;;;;;;;5067765;28;20381;-60
2023/12/02 00:02:27;;;;;;;42.13;25.35;;;;;;;;;;5068770;28;20036;-60
2023/12/02 00:04:53;;;;;;;40.45;22.75;;;;;;;;;;5069071;28;20033;-60
2023/12/02 00:07:19;;;;;;;44.13;24.08;;;;;;;;;;5068480;28;20077;-60
2023/12/02 00:09:45;;;;;;;36.15;21.35;;;;;;;;;;5068564;28;20393;-60
2023/12/02 00:12:11;;;;;;;41.45;24.42;;;;;;;;;;5067248;28;20020;-60
2023/12/02 00:14:37;;;;;;;39.35;22.98;;;;;;;;;;5069249;28;20347;-60
2023/12/02 00:17:03;;;;;;;31.75;20.63;;;;;;;;;;5054608;28;20040;-60
2023/12/02 00:19:29;;;;;;;34.47;20.85;;;;;;;;;;5068514;28;20346;-61
2023/12/02 00:21:55;;;;;;;36.25;21.63;;;;;;;;;;5068916;28;20025;-60
2023/12/02 00:24:21;;;;;;;37.80;22.92;;;;;;;;;;5062408;28;20055;-60
2023/12/02 00:26:47;;;;;;;40.83;23.17;;;;;;;;;;5059233;28;20031;-60
2023/12/02 00:29:13;;;;;;;39.55;22.02;;;;;;;;;;5067246;28;20136;-60
2023/12/02 00:31:39;;;;;;;32.67;20.90;;;;;;;;;;5068917;28;20073;-61
2023/12/02 00:34:05;;;;;;;38.70;22.70;;;;;;;;;;5068489;28;20035;-60
2023/12/02 00:36:32;;;;;;;39.40;21.50;;;;;;;;;;5065874;28;20024;-60
2023/12/02 00:38:58;;;;;;;35.60;22.05;;;;;;;;;;5050988;28;20497;-60
2023/12/02 00:41:24;;;;;;;37.83;22.02;;;;;;;;;;5050059;28;20027;-60
2023/12/02 00:43:50;;;;;;;36.88;22.63;;;;;;;;;;5048609;28;20045;-60
2023/12/02 00:46:16;;;;;;;35.95;21.38;;;;;;;;;;5068715;28;20021;-60
2023/12/02 00:48:42;;;;;;;38.20;21.42;;;;;;;;;;5068289;28;20408;-60
2023/12/02 00:51:08;;;;;;;36.00;20.75;;;;;;;;;;5068571;28;20028;-60
2023/12/02 00:53:34;;;;;;;33.15;20.63;;;;;;;;;;5058227;28;20052;-61
2023/12/02 00:56:00;;;;;;;34.38;21.00;;;;;;;;;;5062912;28;20052;-60
2023/12/02 00:58:26;;;;;;;40.38;20.67;;;;;;;;;;5056740;28;20047;-60
2023/12/02 01:00:52;;;;;;;32.88;19.80;;;;;;;;;;5069368;28;20028;-60
2023/12/02 01:03:18;;;;;;;33.58;21.13;;;;;;;;;;5068970;28;20079;-61
2023/12/02 01:05:44;;;;;;;38.42;22.52;;;;;;;;;;5069343;28;20033;-60
2023/12/02 01:08:10;;;;;;;37.05;21.92;;;;;;;;;;5065775;28;20486;-60
2023/12/02 01:10:36;;;;;;;36.83;21.90;;;;;;;;;;5058892;28;20130;-60
2023/12/02 01:13:02;;;;;;;40.45;23.25;;;;;;;;;;5069472;28;20430;-60
2023/12/02 01:15:28;;;;;;;42.80;23.83;;;;;;;;;;5068441;28;20067;-60
2023/12/02 01:17:54;;;;;;;49.90;25.25;;;;;;;;;;5061854;28;20029;-60
2023/12/02 01:20:20;;;;;;;42.97;23.52;;;;;;;;;;5067695;28;20040;-60
2023/12/02 01:22:46;;;;;;;37.40;21.45;;;;;;;;;;5064687;28;20139;-60
2023/12/02 01:25:12;;;;;;;38.63;21.90;;;;;;;;;;5068374;28;20438;-61
2023/12/02 01:27:38;;;;;;;37.78;22.00;;;;;;;;;;5068543;28;20044;-61
2023/12/02 01:30:04;;;;;;;35.60;20.27;;;;;;;;;;5069646;28;20032;-61
2023/12/02 01:32:30;;;;;;;39.55;21.95;;;;;;;;;;5072027;28;20044;-61
2023/12/02 01:34:56;;;;;;;37.47;22.20;;;;;;;;;;5072275;28;20056;-61
2023/12/02 01:37:22;;;;;;;40.53;23.43;;;;;;;;;;5072932;28;20024;-61
2023/12/02 01:39:48;;;;;;;38.67;23.10;;;;;;;;;;5071494;28;20460;-60
2023/12/02 01:42:14;;;;;;;37.47;21.37;;;;;;;;;;5072742;28;20033;-60
2023/12/02 01:44:40;;;;;;;37.40;22.05;;;;;;;;;;5072802;28;20047;-61
2023/12/02 01:47:06;;;;;;;37.33;21.97;;;;;;;;;;5073160;28;20024;-61
2023/12/02 01:49:32;;;;;;;43.28;24.15;;;;;;;;;;5072863;28;20024;-61
2023/12/02 01:51:58;;;;;;;37.50;23.95;;;;;;;;;;5072469;28;20114;-61
2023/12/02 01:54:25;;;;;;;40.40;24.10;;;;;;;;;;5072625;28;20016;-61
2023/12/02 01:56:50;;;;;;;41.88;24.17;;;;;;;;;;5072759;28;20326;-61
2023/12/02 01:59:18;;;;;;;47.20;26.70;;;;;;;;;;5071188;28;20082;-60
2023/12/02 02:01:44;;;;;;;44.22;25.73;;;;;;;;;;5072750;28;20448;-61
2023/12/02 02:04:10;;;;;;;47.40;26.67;;;;;;;;;;5072664;28;20111;-61
2023/12/02 02:06:36;;;;;;;44.25;26.08;;;;;;;;;;5072590;28;20029;-61
2023/12/02 02:09:02;;;;;;;46.20;24.27;;;;;;;;;;5071568;28;20079;-61
2023/12/02 02:11:28;;;;;;;43.72;24.85;;;;;;;;;;5073358;28;20028;-60
2023/12/02 02:13:54;;;;;;;34.03;23.67;;;;;;;;;;5069125;28;20132;-61
2023/12/02 02:16:20;;;;;;;38.42;23.65;;;;;;;;;;5069238;28;20103;-61
2023/12/02 02:18:46;;;;;;;33.70;21.58;;;;;;;;;;5069867;28;20481;-61
2023/12/02 02:21:16;;;;;;;35.55;21.42;;;;;;;;;;5070137;28;20063;-61
2023/12/02 02:23:42;;;;;;;34.85;21.63;;;;;;;;;;5071923;28;20067;-61
2023/12/02 02:26:08;;;;;;;32.17;19.83;;;;;;;;;;5073266;28;20573;-60
2023/12/02 02:28:34;;;;;;;34.65;21.17;;;;;;;;;;5074023;28;20047;-61
2023/12/02 02:31:00;;;;;;;34.37;21.00;;;;;;;;;;5074161;28;20017;-60
2023/12/02 02:33:26;;;;;;;31.47;20.60;;;;;;;;;;5074030;28;20025;-61
2023/12/02 02:35:52;;;;;;;31.17;19.15;;;;;;;;;;5072784;28;20295;-61
2023/12/02 02:38:19;;;;;;;30.30;19.95;;;;;;;;;;5074133;28;20073;-61
2023/12/02 02:40:45;;;;;;;30.67;19.97;;;;;;;;;;5073818;28;20484;-61
2023/12/02 02:43:11;;;;;;;33.27;19.73;;;;;;;;;;5073604;28;20101;-60
2023/12/02 02:45:37;;;;;;;33.17;20.63;;;;;;;;;;5074060;28;20024;-61
2023/12/02 02:48:03;;;;;;;29.03;18.83;;;;;;;;;;5060423;28;20025;-61
2023/12/02 02:50:29;;;;;;;31.02;19.80;;;;;;;;;;5073546;28;20054;-61
2023/12/02 02:52:55;;;;;;;36.20;19.60;;;;;;;;;;5073819;28;20094;-61
2023/12/02 02:55:21;;;;;;;34.85;21.00;;;;;;;;;;5073503;28;20021;-61
2023/12/02 02:57:47;;;;;;;33.33;20.13;;;;;;;;;;5074053;28;20111;-61
2023/12/02 03:00:13;;;;;;;34.77;21.30;;;;;;;;;;5073423;28;20100;-60
2023/12/02 03:02:39;;;;;;;29.77;19.00;;;;;;;;;;5073497;28;20045;-61
2023/12/02 03:05:05;;;;;;;34.13;20.43;;;;;;;;;;5072081;28;20493;-61
2023/12/02 03:07:34;;;;;;;27.90;18.90;;;;;;;;;;5072430;28;20025;-61
2023/12/02 03:10:00;;;;;;;33.93;20.33;;;;;;;;;;5067304;28;20021;-61
2023/12/02 03:12:27;;;;;;;34.50;20.57;;;;;;;;;;5072621;28;20473;-61
2023/12/02 03:14:53;;;;;;;31.33;20.37;;;;;;;;;;5061311;28;20017;-61
2023/12/02 03:17:19;;;;;;;41.97;21.00;;;;;;;;;;5069450;28;20417;-61
2023/12/02 03:19:47;;;;;;;42.17;22.40;;;;;;;;;;5054754;28;20483;-60
2023/12/02 03:22:13;;;;;;;40.00;23.03;;;;;;;;;;5071549;28;20338;-61
2023/12/02 03:24:39;;;;;;;41.95;21.88;;;;;;;;;;5072728;28;20033;-61
2023/12/02 03:27:06;;;;;;;40.83;22.45;;;;;;;;;;5073074;28;20024;-61
2023/12/02 03:29:32;;;;;;;50.40;23.57;;;;;;;;;;5072930;28;20385;-61
2023/12/02 03:31:58;;;;;;;47.50;23.77;;;;;;;;;;5053434;28;20532;-61
2023/12/02 03:34:24;;;;;;;39.05;24.63;;;;;;;;;;5064259;28;20024;-61
2023/12/02 03:36:50;;;;;;;49.47;26.43;;;;;;;;;;5071607;28;20068;-60
2023/12/02 03:39:18;;;;;;;41.37;25.07;;;;;;;;;;5072858;28;20028;-61
2023/12/02 03:41:44;;;;;;;43.73;24.90;;;;;;;;;;5058639;28;20504;-61
2023/12/02 03:44:10;;;;;;;50.63;27.97;;;;;;;;;;5064742;28;20107;-61
2023/12/02 03:46:36;;;;;;;53.53;27.30;;;;;;;;;;5066275;28;20036;-61
2023/12/02 03:49:03;;;;;;;53.03;26.92;;;;;;;;;;5058542;28;20099;-61
2023/12/02 03:51:29;;;;;;;50.25;27.23;;;;;;;;;;5072499;28;20025;-61
2023/12/02 03:53:55;;;;;;;49.92;27.02;;;;;;;;;;5072231;28;20085;-61
2023/12/02 03:56:21;;;;;;;50.78;28.52;;;;;;;;;;5072495;28;20419;-61
2023/12/02 03:58:47;;;;;;;53.10;29.45;;;;;;;;;;5072494;28;20154;-61
2023/12/02 04:01:14;;;;;;;50.28;27.52;;;;;;;;;;5058480;28;20059;-62
2023/12/02 04:03:42;;;;;;;54.30;28.60;;;;;;;;;;5064386;28;20485;-61
2023/12/02 04:06:08;;;;;;;54.08;28.90;;;;;;;;;;5072279;28;20023;-61
2023/12/02 04:08:34;;;;;;;54.35;27.30;;;;;;;;;;5058216;28;20028;-61
2023/12/02 04:11:00;;;;;;;50.40;26.88;;;;;;;;;;5072192;28;20439;-61
2023/12/02 04:13:26;;;;;;;45.92;24.60;;;;;;;;;;5072138;28;20032;-61
2023/12/02 04:15:52;;;;;;;48.78;26.27;;;;;;;;;;5072347;28;20061;-61
2023/12/02 04:18:18;;;;;;;52.45;28.50;;;;;;;;;;5072142;28;20063;-61
2023/12/02 04:20:44;;;;;;;53.45;29.35;;;;;;;;;;5072080;28;20381;-61
2023/12/02 04:23:10;;;;;;;55.28;28.25;;;;;;;;;;5071853;28;20046;-61
2023/12/02 04:25:38;;;;;;;55.58;28.58;;;;;;;;;;5072136;28;20477;-61
2023/12/02 04:28:04;;;;;;;57.92;29.67;;;;;;;;;;5072088;28;20020;-61
2023/12/02 04:30:30;;;;;;;54.63;29.45;;;;;;;;;;5072161;28;20021;-61
2023/12/02 04:32:56;;;;;;;45.55;26.45;;;;;;;;;;5071964;28;20158;-61
2023/12/02 04:35:22;;;;;;;53.85;27.40;;;;;;;;;;5072037;28;20060;-61
2023/12/02 04:37:48;;;;;;;48.67;26.30;;;;;;;;;;5059607;28;20449;-61
2023/12/02 04:40:14;;;;;;;44.47;24.85;;;;;;;;;;5071917;28;20016;-61
2023/12/02 04:42:41;;;;;;;47.13;25.48;;;;;;;;;;5071762;28;20032;-61
2023/12/02 04:45:08;;;;;;;45.78;24.10;;;;;;;;;;5072091;28;20458;-61
2023/12/02 04:47:34;;;;;;;42.15;24.02;;;;;;;;;;5061950;28;20044;-61
2023/12/02 04:50:00;;;;;;;49.20;24.33;;;;;;;;;;5068098;28;20090;-61
2023/12/02 04:52:26;;;;;;;39.17;23.27;;;;;;;;;;5071877;28;20020;-61
2023/12/02 04:54:52;;;;;;;41.58;21.40;;;;;;;;;;5071775;28;20111;-61
2023/12/02 04:57:18;;;;;;;37.22;22.17;;;;;;;;;;5071786;28;20024;-61
2023/12/02 04:59:44;;;;;;;46.03;22.90;;;;;;;;;;5071825;28;20027;-61
2023/12/02 05:02:10;;;;;;;48.95;24.42;;;;;;;;;;5057729;28;20462;-61
2023/12/02 05:04:36;;;;;;;38.05;22.98;;;;;;;;;;5060389;28;20072;-61
2023/12/02 05:07:02;;;;;;;38.67;22.67;;;;;;;;;;5070001;28;20029;-61
2023/12/02 05:09:29;;;;;;;38.63;22.38;;;;;;;;;;5064161;28;20070;-61
2023/12/02 05:11:55;;;;;;;37.25;21.70;;;;;;;;;;5075643;28;20041;-61
2023/12/02 05:14:21;;;;;;;42.42;24.58;;;;;;;;;;5075676;28;20028;-61
2023/12/02 05:16:47;;;;;;;41.67;23.47;;;;;;;;;;5075893;28;20381;-61
2023/12/02 05:19:13;;;;;;;44.72;23.27;;;;;;;;;;5061439;28;20043;-61
2023/12/02 05:21:39;;;;;;;38.15;21.70;;;;;;;;;;5075648;28;20020;-61
2023/12/02 05:24:06;;;;;;;53.53;25.48;;;;;;;;;;5075455;28;20037;-61
2023/12/02 05:26:32;;;;;;;47.80;23.52;;;;;;;;;;5075291;28;20012;-61
2023/12/02 05:29:00;;;;;;;46.10;22.88;;;;;;;;;;5075420;28;20039;-61
2023/12/02 05:31:26;;;;;;;47.13;23.20;;;;;;;;;;5075212;28;20422;-61
2023/12/02 05:33:52;;;;;;;44.15;22.73;;;;;;;;;;5073976;28;20402;-61
2023/12/02 05:36:18;;;;;;;47.03;24.67;;;;;;;;;;5073853;28;20064;-61
2023/12/02 05:38:45;;;;;;;42.97;23.55;;;;;;;;;;5075613;28;20035;-61
2023/12/02 05:41:11;;;;;;;38.03;21.35;;;;;;;;;;5075130;28;20070;-61
2023/12/02 05:43:37;;;;;;;40.20;20.60;;;;;;;;;;5069205;28;20045;-61
2023/12/02 05:46:02;;;;;;;35.40;20.13;;;;;;;;;;5066668;28;20478;-61
2023/12/02 05:48:28;;;;;;;42.72;21.48;;;;;;;;;;5074959;28;20024;-61
2023/12/02 05:50:54;;;;;;;40.42;21.95;;;;;;;;;;5065364;28;20379;-61
2023/12/02 05:53:21;;;;;;;38.20;22.55;;;;;;;;;;5056430;28;20087;-61
2023/12/02 05:55:47;;;;;;;40.25;22.42;;;;;;;;;;5070204;28;20020;-63
2023/12/02 05:58:12;;;;;;;42.80;22.40;;;;;;;;;;5073883;28;20021;-61
2023/12/02 06:00:38;;;;;;;39.60;21.90;;;;;;;;;;5073913;28;20032;-61
2023/12/02 06:03:04;;;;;;;35.63;21.03;;;;;;;;;;5072139;28;20044;-61
2023/12/02 06:05:30;;;;;;;39.73;21.10;;;;;;;;;;5074710;28;20106;-62
2023/12/02 06:07:56;;;;;;;33.88;19.55;;;;;;;;;;5066699;28;20033;-61
2023/12/02 06:10:22;;;;;;;33.57;19.70;;;;;;;;;;5069101;28;20020;-61
2023/12/02 06:12:48;;;;;;;31.67;19.83;;;;;;;;;;5073324;28;20050;-61
2023/12/02 06:15:14;;;;;;;35.97;21.50;;;;;;;;;;5072911;28;20500;-61
2023/12/02 06:17:40;;;;;;;37.40;22.00;;;;;;;;;;5074381;28;20016;-61
2023/12/02 06:20:09;;;;;;;38.33;22.92;;;;;;;;;;5074610;28;20141;-61
2023/12/02 06:22:35;;;;;;;40.65;21.33;;;;;;;;;;5074430;28;20055;-62
2023/12/02 06:25:01;;;;;;;43.30;23.10;;;;;;;;;;5074287;28;20100;-61
2023/12/02 06:27:27;;;;;;;42.58;23.10;;;;;;;;;;5074258;28;20103;-61
2023/12/02 06:29:53;;;;;;;43.47;22.35;;;;;;;;;;5071365;28;20028;-61
2023/12/02 06:32:19;;;;;;;37.35;21.92;;;;;;;;;;5066605;28;20427;-61
2023/12/02 06:34:45;;;;;;;40.65;21.75;;;;;;;;;;5074112;28;20092;-61
2023/12/02 06:37:11;;;;;;;41.53;21.10;;;;;;;;;;5060298;28;20470;-61
2023/12/02 06:39:37;;;;;;;40.40;21.50;;;;;;;;;;5054188;28;20047;-61
2023/12/02 06:42:03;;;;;;;35.92;21.40;;;;;;;;;;5068120;28;20021;-61
2023/12/02 06:44:29;;;;;;;33.40;20.95;;;;;;;;;;5063416;28;20048;-61
2023/12/02 06:46:55;;;;;;;39.17;20.58;;;;;;;;;;5074087;28;20116;-61
2023/12/02 06:49:21;;;;;;;39.78;21.75;;;;;;;;;;5073931;28;20024;-61
2023/12/02 06:51:47;;;;;;;35.63;20.50;;;;;;;;;;5070115;28;20024;-62
2023/12/02 06:54:13;;;;;;;31.33;18.50;;;;;;;;;;5064020;28;20029;-61
2023/12/02 06:56:39;;;;;;;33.37;19.77;;;;;;;;;;5071103;28;20020;-61
2023/12/02 06:59:05;;;;;;;33.38;18.52;;;;;;;;;;5071394;28;20443;-61
2023/12/02 07:01:32;;;;;;;29.27;18.93;;;;;;;;;;5072160;28;20070;-61
2023/12/02 07:03:59;;;;;;;27.53;16.37;;;;;;;;;;5073543;28;20055;-61
2023/12/02 07:06:25;;;;;;;22.70;14.13;;;;;;;;;;5073650;28;20323;-61
2023/12/02 07:08:52;;;;;;;22.90;14.38;;;;;;;;;;5073590;28;20024;-61
2023/12/02 07:11:18;;;;;;;20.90;13.63;;;;;;;;;;5072248;28;20099;-61
2023/12/02 07:13:45;;;;;;;17.20;12.13;;;;;;;;;;5073464;28;20029;-61
2023/12/02 07:16:12;;;;;;;18.40;13.03;;;;;;;;;;5073225;28;20016;-61
2023/12/02 07:18:39;;;;;;;18.43;12.43;;;;;;;;;;5073351;28;20477;-61
2023/12/02 07:21:05;;;;;;;17.07;12.13;;;;;;;;;;5060338;28;20024;-63
2023/12/02 07:23:31;;;;;;;18.40;12.27;;;;;;;;;;5071786;28;20024;-63
2023/12/02 07:26:00;;;;;;;16.98;12.73;;;;;;;;;;5073162;28;20031;-63
2023/12/02 07:28:26;;;;;;;17.95;12.20;;;;;;;;;;5072236;28;20024;-63
2023/12/02 07:30:52;;;;;;;18.90;13.27;;;;;;;;;;5073163;28;20040;-63
2023/12/02 07:33:22;;;;;;;17.70;13.33;;;;;;;;;;5073017;28;20082;-63
2023/12/02 07:35:48;;;;;;;16.55;11.00;;;;;;;;;;5073029;28;20416;-63
2023/12/02 07:38:15;;;;;;;18.73;12.43;;;;;;;;;;5072836;28;20024;-63
2023/12/02 07:40:41;;;;;;;16.88;12.77;;;;;;;;;;5072783;28;20017;-63
2023/12/02 07:43:08;;;;;;;16.33;12.85;;;;;;;;;;5072667;28;20494;-63
2023/12/02 07:45:34;;;;;;;19.70;12.57;;;;;;;;;;5072626;28;20107;-63
2023/12/02 07:48:00;;;;;;;19.48;13.25;;;;;;;;;;5072695;28;20030;-63
2023/12/02 07:50:26;;;;;;;16.85;12.70;;;;;;;;;;5072709;28;20028;-63
2023/12/02 07:52:52;;;;;;;20.10;13.20;;;;;;;;;;5072751;28;20535;-63
2023/12/02 07:55:19;;;;;;;20.17;13.63;;;;;;;;;;5072607;28;20390;-63
2023/12/02 07:57:45;;;;;;;15.68;12.38;;;;;;;;;;5072795;28;20025;-63
2023/12/02 08:00:12;;;;;;;17.92;12.73;;;;;;;;;;5072497;28;20027;-64
2023/12/02 08:02:38;;;;;;;17.67;13.43;;;;;;;;;;5072421;28;20019;-64
2023/12/02 08:05:04;;;;;;;18.95;12.73;;;;;;;;;;5072309;28;20177;-64
2023/12/02 08:07:30;;;;;;;18.05;13.57;;;;;;;;;;5066556;28;20052;-64
2023/12/02 08:09:56;;;;;;;19.92;14.57;;;;;;;;;;5060864;28;20064;-64
2023/12/02 08:12:22;;;;;;;24.00;15.60;;;;;;;;;;5062843;28;20021;-64
2023/12/02 08:14:48;;;;;;;20.60;14.52;;;;;;;;;;5065349;28;20028;-64
2023/12/02 08:17:14;;;;;;;20.15;13.75;;;;;;;;;;5072217;28;20465;-64
2023/12/02 08:19:40;;;;;;;20.15;13.80;;;;;;;;;;5072236;28;20427;-64
2023/12/02 08:22:06;;;;;;;17.98;12.82;;;;;;;;;;5071923;28;20039;-64
2023/12/02 08:24:32;;;;;;;17.80;12.23;;;;;;;;;;5061096;28;20032;-64
2023/12/02 08:26:59;;;;;;;16.73;13.45;;;;;;;;;;5072047;28;20361;-64
2023/12/02 08:29:25;;;;;;;18.58;12.90;;;;;;;;;;5072077;28;20491;-64
2023/12/02 08:31:51;;;;;;;16.17;11.63;;;;;;;;;;5072088;28;20052;-70
2023/12/02 08:34:17;;;;;;;18.35;12.15;;;;;;;;;;5071293;28;20082;-69
2023/12/02 08:36:43;;;;;;;18.80;13.55;;;;;;;;;;5066652;28;20036;-70
2023/12/02 08:39:09;;;;;;;19.23;12.40;;;;;;;;;;5065585;28;20029;-60
2023/12/02 08:41:36;;;;;;;19.65;12.13;;;;;;;;;;5055671;28;20107;-62
2023/12/02 08:44:02;;;;;;;15.90;11.85;;;;;;;;;;5068033;28;20113;-63
2023/12/02 08:46:28;;;;;;;17.00;11.23;;;;;;;;;;5071800;28;20076;-63
2023/12/02 08:48:54;;;;;;;17.02;11.73;;;;;;;;;;5072001;28;20466;-62
2023/12/02 08:51:21;;;;;;;15.35;10.60;;;;;;;;;;5071805;28;20070;-62
2023/12/02 08:53:49;;;;;;;16.25;10.50;;;;;;;;;;5070397;28;20064;-62
2023/12/02 08:56:15;;;;;;;14.43;9.07;;;;;;;;;;5070700;28;20082;-63
2023/12/02 08:58:41;;;;;;;11.82;6.65;;;;;;;;;;5070352;28;20330;-63
2023/12/02 09:01:07;;;;;;;11.70;6.28;;;;;;;;;;5050528;28;20025;-63
2023/12/02 09:03:33;;;;;;;4.70;3.58;;;;;;;;;;5070904;28;20028;-63
2023/12/02 09:05:59;;;;;;;3.40;1.90;;;;;;;;;;5067951;28;20033;-63
2023/12/02 09:08:25;;;;;;;2.53;1.50;;;;;;;;;;5060514;28;20025;-63
2023/12/02 09:10:51;;;;;;;1.80;1.00;;;;;;;;;;5071692;28;20473;-62
2023/12/02 09:13:35;;;;;;;0.90;0.57;;;;;;;;;;5071821;28;20032;-62
2023/12/02 09:16:01;;;;;;;4.32;0.38;;;;;;;;;;5070386;28;20025;-62
2023/12/02 09:18:29;;;;;;;0.30;0.13;;;;;;;;;;5071778;28;20035;-63
2023/12/02 09:20:55;;;;;;;0.88;0.40;;;;;;;;;;5071583;28;20373;-63
2023/12/02 09:23:21;;;;;;;1.80;0.40;;;;;;;;;;5070212;28;20029;-62
2023/12/02 09:25:49;;;;;;;1.00;0.40;;;;;;;;;;5071651;28;20071;-62
2023/12/02 09:28:17;;;;;;;0.57;0.20;;;;;;;;;;5070388;28;20108;-63
2023/12/02 09:31:02;;;;;;;0.40;0.40;;;;;;;;;;5071611;28;20033;-63
2023/12/02 09:33:28;;;;;;;;;;;;;;;;;;5072380;28;20024;-63
2023/12/02 09:35:56;;;;;;;5.75;0.65;;;;;;;;;;5071435;28;20392;-63
2023/12/02 09:38:22;;;;;;;1.33;0.30;;;;;;;;;;5059641;28;20027;-63
2023/12/02 09:40:54;;;;;;;0.32;0.20;;;;;;;;;;5071552;28;20025;-63
2023/12/02 09:43:39;;;;;;;1.85;0.40;;;;;;;;;;5057949;28;20047;-64
2023/12/02 09:46:17;;;;;;;0.70;0.32;;;;;;;;;;5071324;28;20075;-62
2023/12/02 09:48:52;;;;;;;2.45;0.90;;;;;;;;;;5071194;28;20080;-63
2023/12/02 09:51:21;;;;;;;2.45;0.68;;;;;;;;;;5072918;28;20035;-63
2023/12/02 09:53:56;;;;;;;1.35;0.47;;;;;;;;;;5075035;28;20063;-63
2023/12/02 09:56:26;;;;;;;1.50;1.00;;;;;;;;;;5068098;28;20025;-62
2023/12/02 09:59:03;;;;;;;3.58;0.50;;;;;;;;;;5068110;28;20446;-62
2023/12/02 10:01:42;;;;;;;1.95;0.68;;;;;;;;;;5060778;28;20126;-62
2023/12/02 10:04:24;;;;;;;0.70;0.43;;;;;;;;;;5062319;28;20032;-62
2023/12/02 10:07:04;;;;;;;4.13;0.63;;;;;;;;;;5074826;28;20048;-62
2023/12/02 10:09:30;;;;;;;2.28;0.40;;;;;;;;;;5074878;28;20108;-61
2023/12/02 10:12:22;;;;;;;0.73;0.50;;;;;;;;;;5053058;28;20061;-61
2023/12/02 10:14:51;;;;;;;0.47;0.40;;;;;;;;;;5061819;28;20446;-61
2023/12/02 10:17:18;;;;;;;0.98;0.50;;;;;;;;;;5074455;28;20028;-61
2023/12/02 10:19:57;;;;;;;0.68;0.30;;;;;;;;;;5074528;28;20032;-61
2023/12/02 10:22:23;;;;;;;2.05;0.50;;;;;;;;;;5074619;28;20349;-61
2023/12/02 10:25:06;;;;;;;1.15;0.60;;;;;;;;;;5074191;28;20033;-60
2023/12/02 10:27:36;;;;;;;2.03;0.40;;;;;;;;;;5073045;28;20035;-60
2023/12/02 10:30:15;;;;;;;1.75;0.60;;;;;;;;;;5074392;28;20381;-60
2023/12/02 10:32:44;;;;;;;1.55;0.60;;;;;;;;;;5074167;28;20021;-60
2023/12/02 10:35:18;;;;;;;0.82;0.40;;;;;;;;;;5074129;28;20047;-61
2023/12/02 10:37:44;;;;;;;3.70;1.00;;;;;;;;;;5064328;28;20025;-60
2023/12/02 10:40:12;;;;;;;2.78;1.45;;;;;;;;;;5060219;28;20046;-60
2023/12/02 10:42:48;;;;;;;2.83;0.82;;;;;;;;;;5073813;28;20029;-60
2023/12/02 10:45:16;;;;;;;0.30;0.28;;;;;;;;;;5073872;28;20033;-60
2023/12/02 10:47:44;;;;;;;0.70;0.43;;;;;;;;;;5073970;28;20095;-60
2023/12/02 10:50:10;;;;;;;1.67;0.85;;;;;;;;;;5073664;28;20024;-60
2023/12/02 10:52:36;;;;;;;1.83;0.45;;;;;;;;;;5065915;28;20025;-60
2023/12/02 10:55:03;;;;;;;1.00;0.70;;;;;;;;;;5073571;28;20021;-60
2023/12/02 10:57:29;;;;;;;0.75;0.40;;;;;;;;;;5072322;28;20408;-60
2023/12/02 11:00:11;;;;;;;0.82;0.30;;;;;;;;;;5061992;28;20029;-60
2023/12/02 11:02:40;;;;;;;0.30;0.30;;;;;;;;;;5073517;28;20017;-60
2023/12/02 11:05:21;;;;;;;0.70;0.30;;;;;;;;;;5073271;28;20330;-60
2023/12/02 11:08:04;;;;;;;0.30;0.10;;;;;;;;;;5073219;28;20137;-60
2023/12/02 11:10:38;;;;;;;1.55;0.10;;;;;;;;;;5073252;28;20020;-60
2023/12/02 11:13:07;;;;;;;0.10;0.10;;;;;;;;;;5073305;28;20442;-60
2023/12/02 11:15:39;;;;;;;0.65;0.20;;;;;;;;;;5066545;28;20095;-60
2023/12/02 11:18:05;;;;;;;1.00;0.15;;;;;;;;;;5080888;28;20024;-60
2023/12/02 11:20:38;;;;;;;1.00;0.10;;;;;;;;;;5071133;28;20016;-60
2023/12/02 11:23:10;;;;;;;0.30;0.20;;;;;;;;;;5070550;28;20438;-61
2023/12/02 11:25:48;;;;;;;1.30;0.40;;;;;;;;;;5072145;28;20037;-61
2023/12/02 11:28:14;;;;;;;0.70;0.20;;;;;;;;;;5072042;28;20322;-61
2023/12/02 11:30:52;;;;;;;0.95;0.28;;;;;;;;;;5072781;28;20099;-62
2023/12/02 11:33:36;;;;;;;0.20;0.20;;;;;;;;;;5073404;28;20027;-62
2023/12/02 11:36:02;;;;;;;0.73;0.63;;;;;;;;;;5073435;28;20107;-62
2023/12/02 11:38:32;;;;;;;0.65;0.30;;;;;;;;;;5073012;28;20032;-62
2023/12/02 11:41:01;;;;;;;0.95;0.30;;;;;;;;;;5053033;28;20021;-62
2023/12/02 11:43:30;;;;;;;0.82;0.40;;;;;;;;;;5051451;28;20047;-61
2023/12/02 11:46:03;;;;;;;1.30;0.30;;;;;;;;;;5053263;28;20029;-60
2023/12/02 11:48:29;;;;;;;0.40;0.40;;;;;;;;;;5052932;28;20482;-60
2023/12/02 11:51:20;;;;;;;1.08;0.45;;;;;;;;;;5051217;28;20047;-61
2023/12/02 11:53:46;;;;;;;1.55;0.40;;;;;;;;;;5052956;28;20025;-60
2023/12/02 11:56:17;;;;;;;0.93;0.30;;;;;;;;;;5052771;28;20079;-60
2023/12/02 11:58:53;;;;;;;0.82;0.40;;;;;;;;;;5052832;28;20508;-61
2023/12/02 12:01:21;;;;;;;2.17;0.73;;;;;;;;;;5052876;28;20041;-61
2023/12/02 12:03:51;;;;;;;1.83;1.35;;;;;;;;;;5052692;28;20033;-61
2023/12/02 12:06:36;;;;;;;3.53;2.30;;;;;;;;;;5053117;28;20029;-61
2023/12/02 12:09:08;;;;;;;2.85;2.47;;;;;;;;;;5053035;28;20029;-61
2023/12/02 12:11:35;;;;;;;2.88;2.60;;;;;;;;;;5052724;28;20083;-61
2023/12/02 12:14:04;;;;;;;3.45;3.15;;;;;;;;;;5052202;28;20114;-61
2023/12/02 12:16:30;;;;;;;3.75;3.17;;;;;;;;;;5052646;28;20382;-61
2023/12/02 12:18:58;;;;;;;4.20;3.25;;;;;;;;;;5051371;28;20036;-61
2023/12/02 12:21:24;;;;;;;3.30;3.00;;;;;;;;;;5052742;28;20074;-61
2023/12/02 12:23:50;;;;;;;2.90;2.60;;;;;;;;;;5052365;28;20133;-62
2023/12/02 12:26:16;;;;;;;3.58;2.90;;;;;;;;;;5051155;28;20114;-61
2023/12/02 12:28:42;;;;;;;4.43;2.80;;;;;;;;;;5052557;28;20036;-61
2023/12/02 12:31:11;;;;;;;2.70;1.27;;;;;;;;;;5052827;28;20032;-61
2023/12/02 12:33:41;;;;;;;0.95;0.90;;;;;;;;;;5052818;28;20033;-61
2023/12/02 12:36:09;;;;;;;1.30;0.98;;;;;;;;;;5052289;28;20025;-61
2023/12/02 12:38:37;;;;;;;0.40;0.40;;;;;;;;;;5052544;28;20107;-61
2023/12/02 12:41:06;;;;;;;1.38;0.50;;;;;;;;;;5052228;28;20094;-61
2023/12/02 12:43:32;;;;;;;1.00;0.50;;;;;;;;;;5050836;28;20045;-61
2023/12/02 12:45:58;;;;;;;0.70;0.40;;;;;;;;;;5052131;28;20415;-60
2023/12/02 12:48:27;;;;;;;0.82;0.40;;;;;;;;;;5051806;28;20096;-60
2023/12/02 12:50:59;;;;;;;0.30;0.20;;;;;;;;;;5051995;28;20029;-60
2023/12/02 12:53:29;;;;;;;0.98;0.32;;;;;;;;;;5050784;28;20035;-59
2023/12/02 12:56:03;;;;;;;0.30;0.20;;;;;;;;;;5052179;28;20055;-59
2023/12/02 12:58:30;;;;;;;2.20;0.28;;;;;;;;;;5052981;28;20117;-59
2023/12/02 13:00:58;;;;;;;0.47;0.32;;;;;;;;;;5052198;28;20111;-60
2023/12/02 13:03:33;;;;;;;0.82;0.47;;;;;;;;;;5052121;28;20140;-59
2023/12/02 13:06:21;;;;;;;0.38;0.30;;;;;;;;;;5052141;28;20105;-59
2023/12/02 13:09:09;;;;;;;2.35;0.30;;;;;;;;;;5052432;28;20025;-59
2023/12/02 13:11:41;;;;;;;2.35;0.32;;;;;;;;;;5050796;28;20053;-59
2023/12/02 13:14:07;;;;;;;0.50;0.40;;;;;;;;;;5052046;28;20461;-59
2023/12/02 13:16:34;;;;;;;0.35;0.30;;;;;;;;;;5052163;28;20036;-59
2023/12/02 13:19:00;;;;;;;0.77;0.30;;;;;;;;;;5052175;28;20029;-59
2023/12/02 13:21:27;;;;;;;0.75;0.20;;;;;;;;;;5052027;28;20175;-59
2023/12/02 13:23:53;;;;;;;0.22;0.22;;;;;;;;;;5052138;28;20029;-59
2023/12/02 13:26:24;;;;;;;1.00;0.28;;;;;;;;;;5052278;28;20040;-59
2023/12/02 13:28:50;;;;;;;0.73;0.30;;;;;;;;;;5056416;28;20039;-59
2023/12/02 13:31:16;;;;;;;0.50;0.20;;;;;;;;;;5055963;28;20039;-59
2023/12/02 13:33:54;;;;;;;0.20;0.20;;;;;;;;;;5055958;28;20381;-59
2023/12/02 13:36:26;;;;;;;0.98;0.20;;;;;;;;;;5056272;28;20017;-59
2023/12/02 13:39:11;;;;;;;0.20;0.20;;;;;;;;;;5055971;28;20511;-59
2023/12/02 13:41:37;;;;;;;;;;;;;;;;;;5056304;28;20036;-59
2023/12/02 13:44:04;;;;;;;0.20;0.20;;;;;;;;;;5055490;28;19917;-59
2023/12/02 13:46:33;;;;;;;0.32;0.22;;;;;;;;;;5055537;28;20470;-59
2023/12/02 13:49:03;;;;;;;1.13;0.10;;;;;;;;;;5055887;28;20029;-59
2023/12/02 13:51:29;;;;;;;1.33;0.28;;;;;;;;;;5055324;28;20021;-59
2023/12/02 13:54:01;;;;;;;0.28;0.28;;;;;;;;;;5055553;28;20036;-59
2023/12/02 13:56:32;;;;;;;0.30;0.15;;;;;;;;;;5055551;28;20025;-59
2023/12/02 13:59:22;;;;;;;0.47;0.13;;;;;;;;;;5056651;28;20363;-59
2023/12/02 14:01:55;;;;;;;0.50;0.20;;;;;;;;;;5069867;28;20429;-59
2023/12/02 14:04:24;;;;;;;2.15;0.28;;;;;;;;;;5075087;28;20123;-59
2023/12/02 14:07:20;;;;;;;0.50;0.20;;;;;;;;;;5073830;28;20307;-59
2023/12/02 14:09:46;;;;;;;0.95;0.20;;;;;;;;;;5062340;28;20063;-59
2023/12/02 14:12:17;;;;;;;0.30;0.20;;;;;;;;;;5074975;28;20017;-59
2023/12/02 14:14:52;;;;;;;0.77;0.52;;;;;;;;;;5074039;28;20473;-59
2023/12/02 14:17:27;;;;;;;1.02;0.20;;;;;;;;;;5074711;28;20059;-59
2023/12/02 14:20:12;;;;;;;1.00;0.20;;;;;;;;;;5075522;28;20032;-59
2023/12/02 14:22:38;;;;;;;0.93;0.70;;;;;;;;;;5073557;28;20033;-59
2023/12/02 14:25:23;;;;;;;0.47;0.30;;;;;;;;;;5074712;28;20043;-59
2023/12/02 14:28:11;;;;;;;0.25;0.20;;;;;;;;;;5075130;28;20099;-59
2023/12/02 14:30:40;;;;;;;0.38;0.25;;;;;;;;;;5075209;28;20107;-58